createdAt,value
2023-04-03T00:01:11.024Z,11.19
2023-04-03T00:06:14.939Z,11.29
2023-04-03T00:11:13.448Z,10.97
2023-04-03T00:16:12.381Z,12.00
2023-04-03T00:21:07.031Z,10.74
2023-04-03T00:26:10.514Z,10.97
2023-04-03T00:31:08.786Z,12.11
2023-04-03T00:36:07.817Z,12.10
2023-04-03T00:41:12.019Z,11.25
2023-04-03T00:46:06.039Z,10.80
2023-04-03T00:51:00.894Z,10.87
2023-04-03T00:56:00.269Z,10.68
2023-04-03T01:01:06.308Z,11.22
2023-04-03T01:06:02.195Z,11.44
2023-04-03T01:11:01.620Z,11.34
2023-04-03T01:15:57.594Z,11.25
2023-04-03T01:21:43.217Z,11.91
2023-04-03T01:26:53.089Z,10.39
2023-04-03T01:32:03.069Z,10.50
2023-04-03T01:36:59.549Z,10.58
2023-04-03T01:41:57.886Z,10.53
2023-04-03T01:47:08.534Z,11.70
2023-04-03T01:52:08.803Z,10.38
2023-04-03T01:57:05.360Z,11.59
2023-04-03T02:01:59.470Z,10.27
2023-04-03T02:06:55.055Z,10.28
2023-04-03T02:11:48.960Z,11.36
2023-04-03T02:16:44.524Z,10.83
2023-04-03T02:21:38.586Z,9.82
2023-04-03T02:26:35.478Z,11.36
2023-04-03T02:31:43.647Z,10.53
2023-04-03T02:36:39.787Z,10.78
2023-04-03T02:41:37.713Z,11.00
2023-04-03T02:46:39.443Z,10.35
2023-04-03T02:51:34.940Z,10.38
2023-04-03T02:56:35.903Z,11.19
2023-04-03T03:01:37.006Z,10.79
2023-04-03T03:06:36.872Z,11.05
2023-04-03T03:11:45.177Z,9.89
2023-04-03T03:16:49.846Z,10.95
2023-04-03T03:21:53.864Z,9.79
2023-04-03T03:27:17.695Z,9.71
2023-04-03T03:32:34.967Z,10.01
2023-04-03T03:37:35.826Z,10.35
2023-04-03T03:42:37.624Z,9.14
2023-04-03T03:47:42.617Z,9.81
2023-04-03T03:52:36.593Z,10.21
2023-04-03T03:57:37.566Z,8.96
2023-04-03T04:02:37.625Z,10.08
2023-04-03T04:07:41.289Z,9.97
2023-04-03T04:12:38.731Z,8.59
2023-04-03T04:17:32.738Z,7.92
2023-04-03T04:22:29.372Z,9.27
2023-04-03T04:27:28.694Z,8.33
2023-04-03T04:32:45.231Z,8.63
2023-04-03T04:37:49.420Z,9.45
2023-04-03T04:42:47.947Z,8.47
2023-04-03T04:47:53.804Z,7.92
2023-04-03T04:53:02.709Z,8.23
2023-04-03T04:58:09.613Z,8.80
2023-04-03T05:03:03.571Z,8.23
2023-04-03T05:07:58.346Z,9.10
2023-04-03T05:12:58.879Z,8.85
2023-04-03T05:17:55.073Z,9.41
2023-04-03T05:22:54.332Z,9.63
2023-04-03T05:27:48.621Z,9.45
2023-04-03T05:32:51.431Z,9.56
2023-04-03T05:37:53.637Z,10.01
2023-04-03T05:42:51.071Z,10.21
2023-04-03T05:47:52.059Z,10.41
2023-04-03T05:53:00.565Z,10.65
2023-04-03T05:58:00.319Z,10.81
2023-04-03T06:03:11.576Z,10.09
2023-04-03T06:08:48.598Z,11.24
2023-04-03T06:18:44.810Z,11.29
2023-04-03T06:23:50.214Z,11.76
2023-04-03T06:28:44.367Z,12.22
2023-04-03T06:33:42.111Z,11.72
2023-04-03T06:38:40.517Z,12.53
2023-04-03T06:43:42.911Z,11.92
2023-04-03T06:48:58.518Z,12.11
2023-04-03T06:53:54.332Z,12.22
2023-04-03T06:58:55.818Z,12.61
2023-04-03T07:03:52.755Z,13.26
2023-04-03T07:09:03.161Z,13.77
2023-04-03T07:14:52.294Z,13.94
2023-04-03T07:19:47.224Z,14.13
2023-04-03T07:24:41.570Z,13.93
2023-04-03T07:29:38.683Z,12.98
2023-04-03T07:34:37.597Z,13.87
2023-04-03T07:39:54.834Z,13.76
2023-04-03T07:44:51.599Z,14.85
2023-04-03T07:49:59.204Z,14.24
2023-04-03T07:54:56.577Z,13.97
2023-04-03T08:00:07.351Z,14.68
2023-04-03T08:05:09.250Z,15.25
2023-04-03T08:10:16.871Z,15.76
2023-04-03T08:15:14.048Z,15.87
2023-04-03T08:20:19.645Z,16.04
2023-04-03T08:25:21.970Z,15.54
2023-04-03T08:30:18.886Z,15.41
2023-04-03T08:35:13.462Z,16.60
2023-04-03T08:40:16.239Z,16.72
2023-04-03T08:45:17.293Z,16.47
2023-04-03T08:50:34.255Z,16.98
2023-04-03T08:55:48.824Z,16.98
2023-04-03T09:00:50.927Z,16.77
2023-04-03T09:05:52.360Z,16.22
2023-04-03T09:10:49.011Z,16.35
2023-04-03T09:15:58.719Z,17.34
2023-04-03T09:21:14.693Z,16.80
2023-04-03T09:26:41.234Z,17.07
2023-04-03T09:31:46.141Z,17.87
2023-04-03T09:36:48.867Z,17.96
2023-04-03T09:41:57.630Z,17.91
2023-04-03T09:46:53.661Z,16.86
2023-04-03T09:51:55.738Z,16.69
2023-04-03T09:56:57.141Z,17.76
2023-04-03T10:02:20.889Z,17.28
2023-04-03T10:08:11.376Z,17.77
2023-04-03T10:13:09.393Z,16.82
2023-04-03T10:18:33.008Z,16.52
2023-04-03T10:23:49.993Z,17.93
2023-04-03T10:28:50.520Z,18.13
2023-04-03T10:33:55.637Z,17.84
2023-04-03T10:39:03.421Z,18.36
2023-04-03T10:44:07.557Z,18.96
2023-04-03T10:49:14.334Z,19.47
2023-04-03T10:54:15.461Z,18.80
2023-04-03T10:59:19.009Z,19.21
2023-04-03T11:04:14.034Z,19.21
2023-04-03T11:09:19.478Z,19.13
2023-04-03T11:14:17.436Z,19.36
2023-04-03T11:19:22.684Z,19.92
2023-04-03T11:24:23.299Z,20.78
2023-04-03T11:29:34.452Z,20.65
2023-04-03T11:34:39.423Z,20.38
2023-04-03T11:39:36.987Z,20.22
2023-04-03T11:44:38.795Z,20.13
2023-04-03T11:50:11.456Z,20.43
2023-04-03T11:55:52.412Z,20.51
2023-04-03T12:01:10.104Z,19.96
2023-04-03T12:06:41.070Z,19.74
2023-04-03T12:11:42.557Z,19.51
2023-04-03T12:16:47.086Z,19.38
2023-04-03T12:22:10.479Z,19.63
2023-04-03T12:27:12.458Z,19.42
2023-04-03T12:32:19.402Z,19.55
2023-04-03T12:37:27.694Z,19.77
2023-04-03T12:42:36.891Z,19.60
2023-04-03T12:47:34.228Z,19.42
2023-04-03T12:52:44.877Z,19.24
2023-04-03T12:57:43.501Z,18.57
2023-04-03T13:02:38.653Z,18.92
2023-04-03T13:07:38.637Z,18.74
2023-04-03T13:12:36.028Z,18.71
2023-04-03T13:17:38.891Z,18.06
2023-04-03T13:22:43.481Z,18.32
2023-04-03T13:27:38.105Z,17.90
2023-04-03T13:32:35.858Z,18.02
2023-04-03T13:37:31.505Z,17.48
2023-04-03T13:42:27.546Z,17.55
2023-04-03T13:47:23.247Z,17.77
2023-04-03T13:52:37.320Z,17.75
2023-04-03T13:57:30.989Z,16.80
2023-04-03T14:02:33.165Z,16.89
2023-04-03T14:07:27.398Z,17.63
2023-04-03T14:12:31.724Z,17.61
2023-04-03T14:17:28.886Z,17.17
2023-04-03T14:22:28.155Z,17.37
2023-04-03T14:27:25.038Z,17.38
2023-04-03T14:32:24.313Z,16.52
2023-04-03T14:37:23.544Z,17.06
2023-04-03T14:42:21.743Z,17.05
2023-04-03T14:47:29.800Z,16.50
2023-04-03T14:52:28.204Z,15.63
2023-04-03T14:57:22.045Z,16.88
2023-04-03T15:02:29.554Z,16.22
2023-04-03T15:07:23.708Z,16.72
2023-04-03T15:12:16.890Z,16.47
2023-04-03T15:17:17.214Z,16.36
2023-04-03T15:22:16.691Z,16.38
2023-04-03T15:27:13.644Z,16.17
2023-04-03T15:32:14.797Z,15.80
2023-04-03T15:37:08.091Z,16.22
2023-04-03T15:42:07.083Z,16.28
2023-04-03T15:47:00.710Z,16.23
2023-04-03T15:51:53.899Z,15.78
2023-04-03T15:56:47.080Z,15.95
2023-04-03T16:01:42.608Z,16.05
2023-04-03T16:06:36.051Z,15.94
2023-04-03T16:11:29.912Z,15.80
2023-04-03T16:16:23.570Z,15.61
2023-04-03T16:21:19.225Z,15.42
2023-04-03T16:26:12.620Z,15.49
2023-04-03T16:31:08.084Z,15.66
2023-04-03T16:36:01.636Z,15.63
2023-04-03T16:40:58.182Z,15.55
2023-04-03T16:45:51.586Z,15.40
2023-04-03T16:50:53.849Z,14.93
2023-04-03T16:55:51.326Z,15.22
2023-04-03T17:00:48.250Z,15.28
2023-04-03T17:05:41.877Z,14.52
2023-04-03T17:10:36.474Z,15.03
2023-04-03T17:15:29.849Z,14.47
2023-04-03T17:20:29.142Z,14.72
2023-04-03T17:25:25.054Z,14.55
2023-04-03T17:30:20.573Z,14.40
2023-04-03T17:35:13.753Z,14.17
2023-04-03T17:40:16.479Z,14.19
2023-04-03T17:45:10.903Z,14.04
2023-04-03T17:50:04.386Z,14.00
2023-04-03T17:54:58.880Z,13.88
2023-04-03T17:59:55.813Z,13.70
2023-04-03T18:04:55.928Z,13.55
2023-04-03T18:09:52.971Z,13.25
2023-04-03T18:14:47.220Z,13.44
2023-04-03T18:19:42.065Z,13.41
2023-04-03T18:24:36.682Z,13.45
2023-04-03T18:29:42.398Z,12.99
2023-04-03T18:34:35.724Z,12.88
2023-04-03T18:39:38.045Z,13.21
2023-04-03T18:44:33.646Z,12.98
2023-04-03T18:49:32.799Z,13.24
2023-04-03T18:54:28.219Z,12.76
2023-04-03T18:59:25.220Z,13.03
2023-04-03T19:04:18.889Z,12.34
2023-04-03T19:09:16.217Z,12.59
2023-04-03T19:19:16.985Z,12.74
2023-04-03T19:24:11.074Z,12.86
2023-04-03T19:29:11.823Z,11.74
2023-04-03T19:34:16.335Z,11.68
2023-04-03T19:39:14.058Z,11.72
2023-04-03T19:44:17.686Z,12.12
2023-04-03T19:49:17.736Z,12.20
2023-04-03T19:54:13.470Z,11.76
2023-04-03T19:59:07.371Z,12.54
2023-04-03T20:04:10.777Z,12.59
2023-04-03T20:09:07.248Z,12.72
2023-04-03T20:14:05.993Z,12.81
2023-04-03T20:19:00.661Z,12.71
2023-04-03T20:23:53.939Z,11.17
2023-04-03T20:28:48.650Z,11.70
2023-04-03T20:33:54.675Z,11.41
2023-04-03T20:38:49.080Z,12.14
2023-04-03T20:43:56.605Z,11.53
2023-04-03T20:49:01.870Z,11.66
2023-04-03T20:54:07.100Z,10.97
2023-04-03T20:59:02.588Z,11.69
2023-04-03T21:04:39.955Z,12.11
2023-04-03T21:10:10.638Z,12.09
2023-04-03T21:15:41.337Z,12.07
2023-04-03T21:20:42.353Z,11.47
2023-04-03T21:25:54.821Z,11.87
2023-04-03T21:30:52.929Z,11.72
2023-04-03T21:35:48.137Z,11.66
2023-04-03T21:40:41.645Z,11.76
2023-04-03T21:45:35.273Z,11.90
2023-04-03T21:50:28.586Z,10.90
2023-04-03T21:55:23.708Z,11.86
2023-04-03T22:00:17.703Z,11.83
2023-04-03T22:05:11.417Z,11.80
2023-04-03T22:10:05.140Z,11.58
2023-04-03T22:15:00.689Z,10.63
2023-04-03T22:19:54.068Z,10.32
2023-04-03T22:24:47.309Z,10.74
2023-04-03T22:29:40.686Z,9.99
2023-04-03T22:34:39.725Z,10.44
2023-04-03T22:39:33.001Z,10.29
2023-04-03T22:44:29.649Z,10.16
2023-04-03T22:49:25.452Z,9.92
2023-04-03T22:54:20.098Z,9.71
2023-04-03T22:59:13.415Z,9.49
2023-04-03T23:04:06.765Z,9.61
2023-04-03T23:09:00.244Z,9.39
2023-04-03T23:13:54.777Z,9.29
2023-04-03T23:18:50.112Z,9.09
2023-04-03T23:23:43.528Z,9.16
2023-04-03T23:28:38.090Z,8.92
2023-04-03T23:33:33.484Z,9.22
2023-04-03T23:38:26.922Z,8.67
2023-04-03T23:43:20.209Z,9.11
2023-04-03T23:48:13.456Z,9.05
2023-04-03T23:53:08.658Z,8.22
2023-04-03T23:58:01.991Z,8.24
